sensor_id;sensor_type;location;lat;lon;timestamp;P1;durP1;ratioP1;P2;durP2;ratioP2
76984;SDS011;65919;47.650;-2.782;2023-07-16T00:00:27;13.30;;;5.25;;
76984;SDS011;65919;47.650;-2.782;2023-07-16T00:02:53;14.75;;;5.13;;
76984;SDS011;65919;47.650;-2.782;2023-07-16T00:05:19;10.68;;;4.53;;
76984;SDS011;65919;47.650;-2.782;2023-07-16T00:07:44;11.63;;;4.60;;
76984;SDS011;65919;47.650;-2.782;2023-07-16T00:10:10;10.60;;;4.10;;
76984;SDS011;65919;47.650;-2.782;2023-07-16T00:12:35;15.52;;;5.40;;
76984;SDS011;65919;47.650;-2.782;2023-07-16T00:15:01;16.15;;;5.32;;
76984;SDS011;65919;47.650;-2.782;2023-07-16T00:17:27;17.10;;;5.72;;
76984;SDS011;65919;47.650;-2.782;2023-07-16T00:19:52;15.07;;;5.38;;
76984;SDS011;65919;47.650;-2.782;2023-07-16T00:22:18;17.42;;;5.10;;
76984;SDS011;65919;47.650;-2.782;2023-07-16T00:24:44;12.52;;;4.57;;
76984;SDS011;65919;47.650;-2.782;2023-07-16T00:27:09;10.70;;;4.55;;
76984;SDS011;65919;47.650;-2.782;2023-07-16T00:29:35;11.13;;;4.82;;
76984;SDS011;65919;47.650;-2.782;2023-07-16T00:32:00;10.38;;;4.43;;
76984;SDS011;65919;47.650;-2.782;2023-07-16T00:34:26;14.20;;;5.50;;
76984;SDS011;65919;47.650;-2.782;2023-07-16T00:36:51;11.80;;;4.78;;
76984;SDS011;65919;47.650;-2.782;2023-07-16T00:39:17;15.32;;;4.30;;
76984;SDS011;65919;47.650;-2.782;2023-07-16T00:41:42;10.27;;;4.68;;
76984;SDS011;65919;47.650;-2.782;2023-07-16T00:44:08;14.93;;;5.22;;
76984;SDS011;65919;47.650;-2.782;2023-07-16T00:46:33;16.05;;;6.45;;
76984;SDS011;65919;47.650;-2.782;2023-07-16T00:48:59;16.60;;;5.75;;
76984;SDS011;65919;47.650;-2.782;2023-07-16T00:51:25;10.95;;;4.70;;
76984;SDS011;65919;47.650;-2.782;2023-07-16T00:53:51;14.60;;;5.30;;
76984;SDS011;65919;47.650;-2.782;2023-07-16T00:56:17;12.73;;;5.03;;
76984;SDS011;65919;47.650;-2.782;2023-07-16T00:58:43;12.43;;;5.05;;
76984;SDS011;65919;47.650;-2.782;2023-07-16T01:01:09;13.52;;;5.55;;
76984;SDS011;65919;47.650;-2.782;2023-07-16T01:03:34;13.95;;;5.30;;
76984;SDS011;65919;47.650;-2.782;2023-07-16T01:06:04;13.00;;;5.45;;
76984;SDS011;65919;47.650;-2.782;2023-07-16T01:08:56;9.55;;;4.82;;
76984;SDS011;65919;47.650;-2.782;2023-07-16T01:11:26;12.85;;;4.90;;
76984;SDS011;65919;47.650;-2.782;2023-07-16T01:13:52;16.73;;;5.57;;
76984;SDS011;65919;47.650;-2.782;2023-07-16T01:16:22;11.82;;;5.68;;
76984;SDS011;65919;47.650;-2.782;2023-07-16T01:18:50;15.52;;;6.00;;
76984;SDS011;65919;47.650;-2.782;2023-07-16T01:21:18;13.80;;;5.47;;
76984;SDS011;65919;47.650;-2.782;2023-07-16T01:31:52;13.95;;;5.95;;
76984;SDS011;65919;47.650;-2.782;2023-07-16T01:34:21;11.07;;;4.85;;
76984;SDS011;65919;47.650;-2.782;2023-07-16T01:36:49;15.15;;;5.85;;
76984;SDS011;65919;47.650;-2.782;2023-07-16T01:39:16;11.45;;;5.32;;
76984;SDS011;65919;47.650;-2.782;2023-07-16T01:41:41;12.27;;;6.05;;
76984;SDS011;65919;47.650;-2.782;2023-07-16T01:44:07;12.02;;;5.10;;
76984;SDS011;65919;47.650;-2.782;2023-07-16T01:46:33;12.95;;;5.18;;
76984;SDS011;65919;47.650;-2.782;2023-07-16T01:48:59;12.48;;;5.22;;
76984;SDS011;65919;47.650;-2.782;2023-07-16T01:51:24;14.98;;;5.45;;
76984;SDS011;65919;47.650;-2.782;2023-07-16T01:53:50;11.52;;;5.40;;
76984;SDS011;65919;47.650;-2.782;2023-07-16T01:56:15;15.65;;;5.60;;
76984;SDS011;65919;47.650;-2.782;2023-07-16T01:58:41;12.70;;;5.93;;
76984;SDS011;65919;47.650;-2.782;2023-07-16T02:01:07;16.92;;;5.93;;
76984;SDS011;65919;47.650;-2.782;2023-07-16T02:03:32;14.80;;;5.85;;
76984;SDS011;65919;47.650;-2.782;2023-07-16T02:05:58;11.20;;;6.18;;
76984;SDS011;65919;47.650;-2.782;2023-07-16T02:08:23;14.38;;;6.53;;
76984;SDS011;65919;47.650;-2.782;2023-07-16T02:10:49;17.40;;;6.47;;
76984;SDS011;65919;47.650;-2.782;2023-07-16T02:13:18;13.43;;;5.47;;
76984;SDS011;65919;47.650;-2.782;2023-07-16T02:15:46;12.55;;;6.25;;
76984;SDS011;65919;47.650;-2.782;2023-07-16T02:18:12;13.23;;;5.97;;
76984;SDS011;65919;47.650;-2.782;2023-07-16T02:20:38;15.93;;;5.95;;
76984;SDS011;65919;47.650;-2.782;2023-07-16T02:23:03;10.95;;;5.88;;
76984;SDS011;65919;47.650;-2.782;2023-07-16T02:25:29;14.90;;;6.15;;
76984;SDS011;65919;47.650;-2.782;2023-07-16T02:27:54;11.18;;;5.55;;
76984;SDS011;65919;47.650;-2.782;2023-07-16T02:30:20;11.88;;;5.38;;
76984;SDS011;65919;47.650;-2.782;2023-07-16T02:32:45;14.63;;;6.25;;
76984;SDS011;65919;47.650;-2.782;2023-07-16T02:35:11;10.75;;;6.38;;
76984;SDS011;65919;47.650;-2.782;2023-07-16T02:37:37;15.82;;;6.10;;
76984;SDS011;65919;47.650;-2.782;2023-07-16T02:40:02;16.05;;;6.05;;
76984;SDS011;65919;47.650;-2.782;2023-07-16T02:42:29;16.35;;;7.25;;
76984;SDS011;65919;47.650;-2.782;2023-07-16T02:44:54;13.40;;;6.50;;
76984;SDS011;65919;47.650;-2.782;2023-07-16T02:47:20;13.27;;;6.40;;
76984;SDS011;65919;47.650;-2.782;2023-07-16T02:49:45;11.50;;;6.00;;
76984;SDS011;65919;47.650;-2.782;2023-07-16T02:52:11;11.82;;;6.32;;
76984;SDS011;65919;47.650;-2.782;2023-07-16T02:54:37;13.50;;;6.20;;
76984;SDS011;65919;47.650;-2.782;2023-07-16T02:57:02;17.92;;;6.85;;
76984;SDS011;65919;47.650;-2.782;2023-07-16T02:59:28;14.35;;;5.90;;
76984;SDS011;65919;47.650;-2.782;2023-07-16T03:01:54;12.65;;;6.30;;
76984;SDS011;65919;47.650;-2.782;2023-07-16T03:04:20;11.43;;;6.03;;
76984;SDS011;65919;47.650;-2.782;2023-07-16T03:06:45;16.52;;;6.90;;
76984;SDS011;65919;47.650;-2.782;2023-07-16T03:09:11;13.82;;;6.10;;
76984;SDS011;65919;47.650;-2.782;2023-07-16T03:11:37;16.15;;;7.13;;
76984;SDS011;65919;47.650;-2.782;2023-07-16T03:14:02;13.43;;;6.10;;
76984;SDS011;65919;47.650;-2.782;2023-07-16T03:16:28;13.45;;;6.38;;
76984;SDS011;65919;47.650;-2.782;2023-07-16T03:18:54;15.30;;;6.80;;
76984;SDS011;65919;47.650;-2.782;2023-07-16T03:21:19;12.23;;;6.13;;
76984;SDS011;65919;47.650;-2.782;2023-07-16T03:23:45;16.38;;;6.95;;
76984;SDS011;65919;47.650;-2.782;2023-07-16T03:26:11;13.50;;;6.30;;
76984;SDS011;65919;47.650;-2.782;2023-07-16T03:28:37;13.55;;;5.35;;
76984;SDS011;65919;47.650;-2.782;2023-07-16T03:31:02;17.33;;;6.40;;
76984;SDS011;65919;47.650;-2.782;2023-07-16T03:33:28;13.65;;;7.18;;
76984;SDS011;65919;47.650;-2.782;2023-07-16T03:35:54;12.07;;;7.03;;
76984;SDS011;65919;47.650;-2.782;2023-07-16T03:38:19;13.63;;;6.05;;
76984;SDS011;65919;47.650;-2.782;2023-07-16T03:40:48;12.15;;;6.95;;
76984;SDS011;65919;47.650;-2.782;2023-07-16T03:43:15;13.40;;;6.10;;
76984;SDS011;65919;47.650;-2.782;2023-07-16T03:45:41;12.48;;;6.53;;
76984;SDS011;65919;47.650;-2.782;2023-07-16T03:48:07;17.25;;;6.60;;
76984;SDS011;65919;47.650;-2.782;2023-07-16T03:50:33;13.73;;;6.20;;
76984;SDS011;65919;47.650;-2.782;2023-07-16T03:52:59;14.32;;;6.95;;
76984;SDS011;65919;47.650;-2.782;2023-07-16T03:55:24;17.38;;;6.05;;
76984;SDS011;65919;47.650;-2.782;2023-07-16T03:57:51;16.05;;;6.75;;
76984;SDS011;65919;47.650;-2.782;2023-07-16T04:00:16;13.18;;;6.05;;
76984;SDS011;65919;47.650;-2.782;2023-07-16T04:02:42;12.13;;;6.00;;
76984;SDS011;65919;47.650;-2.782;2023-07-16T04:05:08;15.10;;;6.25;;
76984;SDS011;65919;47.650;-2.782;2023-07-16T04:07:33;9.90;;;6.03;;
76984;SDS011;65919;47.650;-2.782;2023-07-16T04:09:59;11.85;;;6.30;;
76984;SDS011;65919;47.650;-2.782;2023-07-16T04:12:24;16.58;;;7.18;;
76984;SDS011;65919;47.650;-2.782;2023-07-16T04:14:53;12.65;;;6.22;;
76984;SDS011;65919;47.650;-2.782;2023-07-16T04:17:21;13.93;;;6.88;;
76984;SDS011;65919;47.650;-2.782;2023-07-16T04:19:46;12.43;;;7.13;;
76984;SDS011;65919;47.650;-2.782;2023-07-16T04:22:12;15.45;;;6.63;;
76984;SDS011;65919;47.650;-2.782;2023-07-16T04:24:38;13.40;;;6.45;;
76984;SDS011;65919;47.650;-2.782;2023-07-16T04:27:04;11.93;;;6.25;;
76984;SDS011;65919;47.650;-2.782;2023-07-16T04:29:30;9.90;;;5.70;;
76984;SDS011;65919;47.650;-2.782;2023-07-16T04:31:55;15.32;;;6.40;;
76984;SDS011;65919;47.650;-2.782;2023-07-16T04:34:21;9.95;;;5.78;;
76984;SDS011;65919;47.650;-2.782;2023-07-16T04:36:46;14.05;;;6.93;;
76984;SDS011;65919;47.650;-2.782;2023-07-16T04:39:12;14.80;;;6.82;;
76984;SDS011;65919;47.650;-2.782;2023-07-16T04:41:38;10.93;;;5.82;;
76984;SDS011;65919;47.650;-2.782;2023-07-16T04:44:04;13.10;;;5.68;;
76984;SDS011;65919;47.650;-2.782;2023-07-16T04:46:30;13.73;;;6.68;;
76984;SDS011;65919;47.650;-2.782;2023-07-16T04:48:55;10.27;;;5.82;;
76984;SDS011;65919;47.650;-2.782;2023-07-16T04:51:21;12.60;;;5.70;;
76984;SDS011;65919;47.650;-2.782;2023-07-16T04:53:47;13.50;;;6.05;;
76984;SDS011;65919;47.650;-2.782;2023-07-16T04:56:14;14.90;;;6.10;;
76984;SDS011;65919;47.650;-2.782;2023-07-16T04:58:40;10.20;;;5.95;;
76984;SDS011;65919;47.650;-2.782;2023-07-16T05:01:06;15.95;;;5.97;;
76984;SDS011;65919;47.650;-2.782;2023-07-16T05:03:33;11.27;;;5.40;;
76984;SDS011;65919;47.650;-2.782;2023-07-16T05:05:58;13.00;;;5.63;;
76984;SDS011;65919;47.650;-2.782;2023-07-16T05:08:24;14.07;;;5.47;;
76984;SDS011;65919;47.650;-2.782;2023-07-16T05:10:49;10.40;;;6.00;;
76984;SDS011;65919;47.650;-2.782;2023-07-16T05:13:15;13.80;;;5.35;;
76984;SDS011;65919;47.650;-2.782;2023-07-16T05:15:43;11.27;;;5.53;;
76984;SDS011;65919;47.650;-2.782;2023-07-16T05:18:08;15.48;;;6.05;;
76984;SDS011;65919;47.650;-2.782;2023-07-16T05:20:34;13.05;;;6.03;;
76984;SDS011;65919;47.650;-2.782;2023-07-16T05:23:00;12.70;;;5.82;;
76984;SDS011;65919;47.650;-2.782;2023-07-16T05:25:25;13.68;;;6.15;;
76984;SDS011;65919;47.650;-2.782;2023-07-16T05:27:51;10.10;;;4.85;;
76984;SDS011;65919;47.650;-2.782;2023-07-16T05:30:16;13.70;;;6.15;;
76984;SDS011;65919;47.650;-2.782;2023-07-16T05:32:42;14.80;;;5.68;;
76984;SDS011;65919;47.650;-2.782;2023-07-16T05:35:08;10.27;;;5.80;;
76984;SDS011;65919;47.650;-2.782;2023-07-16T05:37:33;9.32;;;5.15;;
76984;SDS011;65919;47.650;-2.782;2023-07-16T05:39:59;12.77;;;6.13;;
76984;SDS011;65919;47.650;-2.782;2023-07-16T05:42:24;9.60;;;5.07;;
76984;SDS011;65919;47.650;-2.782;2023-07-16T05:44:50;9.65;;;6.00;;
76984;SDS011;65919;47.650;-2.782;2023-07-16T05:47:15;10.95;;;4.75;;
76984;SDS011;65919;47.650;-2.782;2023-07-16T05:49:41;13.02;;;5.10;;
76984;SDS011;65919;47.650;-2.782;2023-07-16T05:52:07;10.23;;;5.00;;
76984;SDS011;65919;47.650;-2.782;2023-07-16T05:54:33;8.95;;;4.60;;
76984;SDS011;65919;47.650;-2.782;2023-07-16T05:56:59;11.90;;;5.50;;
76984;SDS011;65919;47.650;-2.782;2023-07-16T05:59:25;10.38;;;4.95;;
76984;SDS011;65919;47.650;-2.782;2023-07-16T06:01:51;9.88;;;5.10;;
76984;SDS011;65919;47.650;-2.782;2023-07-16T06:04:17;10.25;;;5.03;;
76984;SDS011;65919;47.650;-2.782;2023-07-16T06:06:42;8.73;;;4.88;;
76984;SDS011;65919;47.650;-2.782;2023-07-16T06:09:08;11.45;;;5.03;;
76984;SDS011;65919;47.650;-2.782;2023-07-16T06:11:33;12.57;;;5.85;;
76984;SDS011;65919;47.650;-2.782;2023-07-16T06:13:59;13.15;;;5.53;;
76984;SDS011;65919;47.650;-2.782;2023-07-16T06:16:25;15.00;;;5.93;;
76984;SDS011;65919;47.650;-2.782;2023-07-16T06:18:50;10.73;;;5.15;;
76984;SDS011;65919;47.650;-2.782;2023-07-16T06:21:16;12.45;;;5.35;;
76984;SDS011;65919;47.650;-2.782;2023-07-16T06:23:41;10.88;;;4.65;;
76984;SDS011;65919;47.650;-2.782;2023-07-16T06:26:07;9.98;;;4.90;;
76984;SDS011;65919;47.650;-2.782;2023-07-16T06:28:33;9.48;;;5.35;;
76984;SDS011;65919;47.650;-2.782;2023-07-16T06:30:58;13.95;;;5.70;;
76984;SDS011;65919;47.650;-2.782;2023-07-16T06:33:24;10.25;;;5.20;;
76984;SDS011;65919;47.650;-2.782;2023-07-16T06:35:50;11.07;;;4.85;;
76984;SDS011;65919;47.650;-2.782;2023-07-16T06:38:16;10.32;;;5.05;;
76984;SDS011;65919;47.650;-2.782;2023-07-16T06:40:48;14.50;;;5.07;;
76984;SDS011;65919;47.650;-2.782;2023-07-16T06:43:15;10.70;;;5.13;;
76984;SDS011;65919;47.650;-2.782;2023-07-16T06:45:41;15.07;;;5.82;;
76984;SDS011;65919;47.650;-2.782;2023-07-16T06:48:07;11.43;;;5.00;;
76984;SDS011;65919;47.650;-2.782;2023-07-16T06:50:33;11.45;;;5.13;;
76984;SDS011;65919;47.650;-2.782;2023-07-16T06:53:00;11.57;;;5.20;;
76984;SDS011;65919;47.650;-2.782;2023-07-16T06:55:25;8.57;;;4.63;;
76984;SDS011;65919;47.650;-2.782;2023-07-16T06:57:51;14.57;;;5.47;;
76984;SDS011;65919;47.650;-2.782;2023-07-16T07:00:17;13.25;;;5.88;;
76984;SDS011;65919;47.650;-2.782;2023-07-16T07:02:42;10.68;;;5.13;;
76984;SDS011;65919;47.650;-2.782;2023-07-16T07:05:08;12.73;;;5.13;;
76984;SDS011;65919;47.650;-2.782;2023-07-16T07:07:34;11.30;;;5.35;;
76984;SDS011;65919;47.650;-2.782;2023-07-16T07:09:59;8.90;;;4.57;;
76984;SDS011;65919;47.650;-2.782;2023-07-16T07:12:25;28.98;;;15.63;;
76984;SDS011;65919;47.650;-2.782;2023-07-16T07:14:51;17.92;;;8.82;;
76984;SDS011;65919;47.650;-2.782;2023-07-16T07:17:16;17.02;;;8.20;;
76984;SDS011;65919;47.650;-2.782;2023-07-16T07:19:42;18.38;;;9.13;;
76984;SDS011;65919;47.650;-2.782;2023-07-16T07:22:09;17.77;;;8.43;;
76984;SDS011;65919;47.650;-2.782;2023-07-16T07:24:34;16.95;;;8.32;;
76984;SDS011;65919;47.650;-2.782;2023-07-16T07:27:00;16.77;;;7.70;;
76984;SDS011;65919;47.650;-2.782;2023-07-16T07:29:25;16.75;;;8.30;;
76984;SDS011;65919;47.650;-2.782;2023-07-16T07:31:52;18.73;;;7.82;;
76984;SDS011;65919;47.650;-2.782;2023-07-16T07:34:18;17.13;;;7.68;;
76984;SDS011;65919;47.650;-2.782;2023-07-16T07:36:43;12.30;;;5.82;;
76984;SDS011;65919;47.650;-2.782;2023-07-16T07:39:09;15.07;;;6.32;;
76984;SDS011;65919;47.650;-2.782;2023-07-16T07:41:35;15.13;;;5.88;;
76984;SDS011;65919;47.650;-2.782;2023-07-16T07:44:01;16.88;;;6.53;;
76984;SDS011;65919;47.650;-2.782;2023-07-16T07:46:26;19.23;;;5.97;;
76984;SDS011;65919;47.650;-2.782;2023-07-16T07:48:52;13.35;;;5.75;;
76984;SDS011;65919;47.650;-2.782;2023-07-16T07:51:19;17.13;;;5.50;;
76984;SDS011;65919;47.650;-2.782;2023-07-16T07:53:44;14.95;;;5.82;;
76984;SDS011;65919;47.650;-2.782;2023-07-16T07:56:10;15.65;;;5.63;;
76984;SDS011;65919;47.650;-2.782;2023-07-16T07:58:35;10.93;;;4.70;;
76984;SDS011;65919;47.650;-2.782;2023-07-16T08:01:05;9.73;;;3.90;;
76984;SDS011;65919;47.650;-2.782;2023-07-16T08:03:31;15.48;;;3.90;;
76984;SDS011;65919;47.650;-2.782;2023-07-16T08:05:56;8.52;;;2.75;;
76984;SDS011;65919;47.650;-2.782;2023-07-16T08:08:22;9.18;;;2.70;;
76984;SDS011;65919;47.650;-2.782;2023-07-16T08:10:47;6.45;;;2.78;;
76984;SDS011;65919;47.650;-2.782;2023-07-16T08:13:13;10.35;;;2.58;;
76984;SDS011;65919;47.650;-2.782;2023-07-16T08:15:39;5.18;;;1.85;;
76984;SDS011;65919;47.650;-2.782;2023-07-16T08:18:04;8.13;;;2.45;;
76984;SDS011;65919;47.650;-2.782;2023-07-16T08:20:30;7.22;;;2.15;;
76984;SDS011;65919;47.650;-2.782;2023-07-16T08:22:55;9.55;;;2.03;;
76984;SDS011;65919;47.650;-2.782;2023-07-16T08:25:21;7.20;;;2.28;;
76984;SDS011;65919;47.650;-2.782;2023-07-16T08:27:47;7.40;;;1.92;;
76984;SDS011;65919;47.650;-2.782;2023-07-16T08:30:13;6.05;;;2.17;;
76984;SDS011;65919;47.650;-2.782;2023-07-16T08:32:39;8.00;;;2.47;;
76984;SDS011;65919;47.650;-2.782;2023-07-16T08:35:05;6.35;;;1.88;;
76984;SDS011;65919;47.650;-2.782;2023-07-16T08:37:31;6.10;;;2.00;;
76984;SDS011;65919;47.650;-2.782;2023-07-16T08:39:57;6.28;;;2.38;;
76984;SDS011;65919;47.650;-2.782;2023-07-16T08:42:22;5.40;;;1.58;;
76984;SDS011;65919;47.650;-2.782;2023-07-16T08:44:49;6.13;;;2.03;;
76984;SDS011;65919;47.650;-2.782;2023-07-16T08:47:15;8.60;;;1.73;;
76984;SDS011;65919;47.650;-2.782;2023-07-16T08:49:41;5.50;;;1.88;;
76984;SDS011;65919;47.650;-2.782;2023-07-16T08:52:12;5.53;;;1.58;;
76984;SDS011;65919;47.650;-2.782;2023-07-16T08:54:39;4.78;;;1.40;;
76984;SDS011;65919;47.650;-2.782;2023-07-16T08:57:04;4.95;;;2.05;;
76984;SDS011;65919;47.650;-2.782;2023-07-16T08:59:30;3.30;;;1.45;;
76984;SDS011;65919;47.650;-2.782;2023-07-16T09:01:57;4.38;;;1.45;;
76984;SDS011;65919;47.650;-2.782;2023-07-16T09:04:22;2.67;;;1.35;;
76984;SDS011;65919;47.650;-2.782;2023-07-16T09:06:48;4.30;;;1.65;;
76984;SDS011;65919;47.650;-2.782;2023-07-16T09:09:21;6.50;;;1.73;;
76984;SDS011;65919;47.650;-2.782;2023-07-16T09:11:48;2.17;;;1.10;;
76984;SDS011;65919;47.650;-2.782;2023-07-16T09:14:17;3.13;;;1.30;;
76984;SDS011;65919;47.650;-2.782;2023-07-16T09:16:47;3.50;;;1.55;;
76984;SDS011;65919;47.650;-2.782;2023-07-16T09:19:18;4.45;;;1.33;;
76984;SDS011;65919;47.650;-2.782;2023-07-16T09:21:48;4.25;;;1.45;;
76984;SDS011;65919;47.650;-2.782;2023-07-16T09:24:14;4.97;;;1.33;;
76984;SDS011;65919;47.650;-2.782;2023-07-16T09:26:53;3.53;;;1.20;;
76984;SDS011;65919;47.650;-2.782;2023-07-16T09:29:20;2.47;;;0.80;;
76984;SDS011;65919;47.650;-2.782;2023-07-16T09:31:56;4.68;;;1.48;;
76984;SDS011;65919;47.650;-2.782;2023-07-16T09:34:23;3.85;;;0.95;;
76984;SDS011;65919;47.650;-2.782;2023-07-16T09:36:51;4.30;;;1.13;;
76984;SDS011;65919;47.650;-2.782;2023-07-16T09:39:17;4.95;;;1.38;;
76984;SDS011;65919;47.650;-2.782;2023-07-16T09:41:49;4.35;;;1.05;;
76984;SDS011;65919;47.650;-2.782;2023-07-16T09:44:16;6.78;;;1.23;;
76984;SDS011;65919;47.650;-2.782;2023-07-16T09:46:42;3.25;;;1.10;;
76984;SDS011;65919;47.650;-2.782;2023-07-16T09:49:09;5.90;;;1.30;;
76984;SDS011;65919;47.650;-2.782;2023-07-16T09:51:35;3.75;;;1.00;;
76984;SDS011;65919;47.650;-2.782;2023-07-16T09:54:02;5.70;;;1.30;;
76984;SDS011;65919;47.650;-2.782;2023-07-16T09:56:32;5.25;;;1.15;;
76984;SDS011;65919;47.650;-2.782;2023-07-16T09:59:11;6.40;;;1.45;;
76984;SDS011;65919;47.650;-2.782;2023-07-16T10:01:40;6.00;;;1.25;;
76984;SDS011;65919;47.650;-2.782;2023-07-16T10:04:13;3.10;;;1.20;;
76984;SDS011;65919;47.650;-2.782;2023-07-16T10:06:49;9.00;;;1.58;;
76984;SDS011;65919;47.650;-2.782;2023-07-16T10:09:36;7.88;;;1.48;;
76984;SDS011;65919;47.650;-2.782;2023-07-16T10:12:07;6.47;;;2.35;;
76984;SDS011;65919;47.650;-2.782;2023-07-16T10:14:40;6.13;;;1.00;;
76984;SDS011;65919;47.650;-2.782;2023-07-16T10:17:06;3.30;;;1.20;;
76984;SDS011;65919;47.650;-2.782;2023-07-16T10:20:17;4.70;;;1.17;;
76984;SDS011;65919;47.650;-2.782;2023-07-16T10:22:43;4.53;;;1.15;;
76984;SDS011;65919;47.650;-2.782;2023-07-16T10:27:45;6.28;;;1.20;;
76984;SDS011;65919;47.650;-2.782;2023-07-16T10:30:12;6.00;;;1.60;;
76984;SDS011;65919;47.650;-2.782;2023-07-16T10:32:38;4.15;;;2.00;;
76984;SDS011;65919;47.650;-2.782;2023-07-16T10:35:04;3.90;;;1.77;;
76984;SDS011;65919;47.650;-2.782;2023-07-16T10:37:31;8.07;;;2.60;;
76984;SDS011;65919;47.650;-2.782;2023-07-16T10:39:58;8.90;;;2.95;;
76984;SDS011;65919;47.650;-2.782;2023-07-16T10:42:25;6.60;;;2.05;;
76984;SDS011;65919;47.650;-2.782;2023-07-16T10:44:53;6.28;;;2.38;;
76984;SDS011;65919;47.650;-2.782;2023-07-16T10:49:50;8.75;;;5.03;;
76984;SDS011;65919;47.650;-2.782;2023-07-16T10:52:20;18.85;;;12.23;;
76984;SDS011;65919;47.650;-2.782;2023-07-16T10:54:46;23.48;;;13.77;;
76984;SDS011;65919;47.650;-2.782;2023-07-16T10:57:15;15.45;;;9.35;;
76984;SDS011;65919;47.650;-2.782;2023-07-16T10:59:41;14.10;;;8.07;;
76984;SDS011;65919;47.650;-2.782;2023-07-16T11:02:12;11.18;;;5.53;;
76984;SDS011;65919;47.650;-2.782;2023-07-16T11:04:38;10.23;;;4.22;;
76984;SDS011;65919;47.650;-2.782;2023-07-16T11:07:07;13.63;;;3.90;;
76984;SDS011;65919;47.650;-2.782;2023-07-16T11:09:34;9.38;;;4.03;;
76984;SDS011;65919;47.650;-2.782;2023-07-16T11:12:14;13.20;;;4.60;;
76984;SDS011;65919;47.650;-2.782;2023-07-16T11:14:44;8.20;;;3.90;;
76984;SDS011;65919;47.650;-2.782;2023-07-16T11:17:11;11.60;;;4.65;;
76984;SDS011;65919;47.650;-2.782;2023-07-16T11:19:37;17.17;;;5.03;;
76984;SDS011;65919;47.650;-2.782;2023-07-16T11:22:05;18.25;;;7.07;;
76984;SDS011;65919;47.650;-2.782;2023-07-16T11:24:40;17.20;;;5.10;;
76984;SDS011;65919;47.650;-2.782;2023-07-16T11:27:40;13.52;;;4.55;;
76984;SDS011;65919;47.650;-2.782;2023-07-16T11:29:59;9.98;;;3.95;;
76984;SDS011;65919;47.650;-2.782;2023-07-16T11:34:58;10.07;;;3.72;;
76984;SDS011;65919;47.650;-2.782;2023-07-16T11:37:24;8.77;;;4.38;;
76984;SDS011;65919;47.650;-2.782;2023-07-16T11:39:55;9.35;;;3.17;;
76984;SDS011;65919;47.650;-2.782;2023-07-16T11:42:29;11.50;;;4.32;;
76984;SDS011;65919;47.650;-2.782;2023-07-16T11:44:56;10.25;;;3.88;;
76984;SDS011;65919;47.650;-2.782;2023-07-16T11:47:22;6.45;;;3.28;;
76984;SDS011;65919;47.650;-2.782;2023-07-16T11:49:48;7.55;;;2.90;;
76984;SDS011;65919;47.650;-2.782;2023-07-16T11:52:14;12.13;;;3.83;;
76984;SDS011;65919;47.650;-2.782;2023-07-16T11:54:43;30.35;;;11.95;;
76984;SDS011;65919;47.650;-2.782;2023-07-16T11:57:09;16.67;;;6.75;;
76984;SDS011;65919;47.650;-2.782;2023-07-16T11:59:34;10.98;;;5.28;;
76984;SDS011;65919;47.650;-2.782;2023-07-16T12:02:00;12.63;;;5.15;;
76984;SDS011;65919;47.650;-2.782;2023-07-16T12:04:26;9.60;;;4.63;;
76984;SDS011;65919;47.650;-2.782;2023-07-16T12:06:52;15.75;;;4.93;;
76984;SDS011;65919;47.650;-2.782;2023-07-16T12:10:26;14.45;;;4.63;;
76984;SDS011;65919;47.650;-2.782;2023-07-16T12:12:52;11.60;;;5.07;;
76984;SDS011;65919;47.650;-2.782;2023-07-16T12:15:17;10.55;;;4.95;;
76984;SDS011;65919;47.650;-2.782;2023-07-16T12:17:43;11.60;;;5.57;;
76984;SDS011;65919;47.650;-2.782;2023-07-16T12:20:09;17.42;;;5.60;;
76984;SDS011;65919;47.650;-2.782;2023-07-16T12:22:34;20.30;;;7.95;;
76984;SDS011;65919;47.650;-2.782;2023-07-16T12:25:01;15.23;;;6.82;;
76984;SDS011;65919;47.650;-2.782;2023-07-16T12:27:27;17.60;;;7.65;;
76984;SDS011;65919;47.650;-2.782;2023-07-16T12:29:52;16.17;;;7.05;;
76984;SDS011;65919;47.650;-2.782;2023-07-16T12:32:18;14.70;;;6.57;;
76984;SDS011;65919;47.650;-2.782;2023-07-16T12:34:45;13.75;;;6.60;;
76984;SDS011;65919;47.650;-2.782;2023-07-16T12:37:11;11.05;;;6.38;;
76984;SDS011;65919;47.650;-2.782;2023-07-16T12:39:36;15.57;;;7.07;;
76984;SDS011;65919;47.650;-2.782;2023-07-16T12:42:02;16.40;;;6.95;;
76984;SDS011;65919;47.650;-2.782;2023-07-16T12:44:28;12.95;;;6.38;;
76984;SDS011;65919;47.650;-2.782;2023-07-16T12:46:54;14.77;;;6.22;;
76984;SDS011;65919;47.650;-2.782;2023-07-16T12:49:20;12.30;;;5.90;;
76984;SDS011;65919;47.650;-2.782;2023-07-16T12:51:45;11.90;;;6.20;;
76984;SDS011;65919;47.650;-2.782;2023-07-16T12:54:11;14.25;;;6.10;;
76984;SDS011;65919;47.650;-2.782;2023-07-16T12:56:37;10.18;;;5.38;;
76984;SDS011;65919;47.650;-2.782;2023-07-16T12:59:02;11.85;;;6.07;;
76984;SDS011;65919;47.650;-2.782;2023-07-16T13:01:28;13.23;;;5.55;;
76984;SDS011;65919;47.650;-2.782;2023-07-16T13:03:55;12.75;;;5.72;;
76984;SDS011;65919;47.650;-2.782;2023-07-16T13:06:21;11.02;;;4.68;;
76984;SDS011;65919;47.650;-2.782;2023-07-16T13:08:48;10.38;;;5.45;;
76984;SDS011;65919;47.650;-2.782;2023-07-16T13:11:18;10.02;;;5.07;;
76984;SDS011;65919;47.650;-2.782;2023-07-16T13:13:44;12.13;;;4.82;;
76984;SDS011;65919;47.650;-2.782;2023-07-16T13:16:11;8.85;;;4.63;;
76984;SDS011;65919;47.650;-2.782;2023-07-16T13:18:37;10.63;;;4.43;;
76984;SDS011;65919;47.650;-2.782;2023-07-16T13:21:03;9.70;;;5.07;;
76984;SDS011;65919;47.650;-2.782;2023-07-16T13:23:28;11.52;;;6.10;;
76984;SDS011;65919;47.650;-2.782;2023-07-16T13:25:54;13.95;;;5.18;;
76984;SDS011;65919;47.650;-2.782;2023-07-16T13:28:21;12.68;;;4.63;;
76984;SDS011;65919;47.650;-2.782;2023-07-16T13:30:48;10.35;;;3.75;;
76984;SDS011;65919;47.650;-2.782;2023-07-16T13:33:14;9.18;;;4.32;;
76984;SDS011;65919;47.650;-2.782;2023-07-16T13:35:40;10.75;;;4.32;;
76984;SDS011;65919;47.650;-2.782;2023-07-16T13:38:06;9.23;;;3.45;;
76984;SDS011;65919;47.650;-2.782;2023-07-16T13:40:32;9.93;;;3.85;;
76984;SDS011;65919;47.650;-2.782;2023-07-16T13:42:57;8.30;;;4.00;;
76984;SDS011;65919;47.650;-2.782;2023-07-16T13:45:24;8.57;;;4.00;;
76984;SDS011;65919;47.650;-2.782;2023-07-16T13:47:49;11.00;;;3.92;;
76984;SDS011;65919;47.650;-2.782;2023-07-16T13:50:19;8.27;;;4.07;;
76984;SDS011;65919;47.650;-2.782;2023-07-16T13:52:44;7.38;;;3.55;;
76984;SDS011;65919;47.650;-2.782;2023-07-16T13:55:10;9.18;;;3.53;;
76984;SDS011;65919;47.650;-2.782;2023-07-16T13:57:35;11.38;;;3.97;;
76984;SDS011;65919;47.650;-2.782;2023-07-16T14:00:02;6.00;;;4.10;;
76984;SDS011;65919;47.650;-2.782;2023-07-16T14:02:29;11.35;;;3.65;;
76984;SDS011;65919;47.650;-2.782;2023-07-16T14:04:55;8.18;;;4.25;;
76984;SDS011;65919;47.650;-2.782;2023-07-16T14:07:21;9.18;;;3.92;;
76984;SDS011;65919;47.650;-2.782;2023-07-16T14:09:47;5.53;;;2.90;;
76984;SDS011;65919;47.650;-2.782;2023-07-16T14:12:13;7.95;;;3.20;;
76984;SDS011;65919;47.650;-2.782;2023-07-16T14:14:38;6.60;;;3.80;;
76984;SDS011;65919;47.650;-2.782;2023-07-16T14:17:04;8.85;;;2.88;;
76984;SDS011;65919;47.650;-2.782;2023-07-16T14:19:30;5.93;;;2.88;;
76984;SDS011;65919;47.650;-2.782;2023-07-16T14:21:56;9.77;;;3.60;;
76984;SDS011;65919;47.650;-2.782;2023-07-16T14:24:21;7.13;;;3.80;;
76984;SDS011;65919;47.650;-2.782;2023-07-16T14:26:47;6.85;;;3.03;;
76984;SDS011;65919;47.650;-2.782;2023-07-16T14:29:14;6.72;;;3.20;;
76984;SDS011;65919;47.650;-2.782;2023-07-16T14:31:40;7.80;;;3.42;;
76984;SDS011;65919;47.650;-2.782;2023-07-16T14:34:06;7.45;;;3.25;;
76984;SDS011;65919;47.650;-2.782;2023-07-16T14:36:31;6.53;;;3.20;;
76984;SDS011;65919;47.650;-2.782;2023-07-16T14:38:57;7.28;;;3.47;;